createdAt,value
2023-03-08T07:01:39.970Z,0.45
2023-03-08T07:04:07.279Z,0.28
2023-03-08T07:06:34.053Z,0.73
2023-03-08T07:09:01.182Z,0.32
2023-03-08T07:11:29.626Z,0.55
2023-03-08T07:13:57.534Z,0.20
2023-03-08T07:16:24.603Z,0.50
2023-03-08T07:18:51.702Z,0.50
2023-03-08T07:21:19.595Z,0.30
2023-03-08T07:23:46.707Z,0.60
2023-03-08T07:26:13.568Z,0.55
2023-03-08T07:28:40.896Z,0.43
2023-03-08T07:31:12.018Z,0.13
2023-03-08T07:33:40.355Z,0.52
2023-03-08T07:36:17.230Z,0.43
2023-03-08T07:38:46.290Z,0.45
2023-03-08T07:41:13.905Z,0.70
2023-03-08T07:43:41.301Z,0.85
2023-03-08T07:46:09.168Z,0.40
2023-03-08T07:48:37.057Z,1.15
2023-03-08T07:51:07.804Z,0.55
2023-03-08T07:53:40.971Z,0.90
2023-03-08T08:54:11.811Z,1.25
2023-03-08T09:01:48.693Z,1.80
2023-03-08T19:04:11.782Z,0.57
2023-03-08T19:06:38.937Z,1.13
2023-03-08T19:09:17.438Z,0.60
2023-03-08T19:11:45.714Z,0.32
2023-03-08T19:14:13.021Z,1.15
2023-03-08T19:16:40.127Z,1.52
2023-03-08T19:19:10.167Z,0.80
2023-03-08T19:21:48.737Z,1.00
2023-03-08T19:24:17.561Z,1.10
2023-03-08T19:26:47.558Z,0.60
2023-03-08T19:29:22.874Z,0.77
2023-03-08T19:31:49.875Z,0.82
2023-03-08T19:34:17.505Z,2.10
2023-03-08T19:36:46.399Z,0.50
2023-03-08T19:39:16.528Z,0.55
2023-03-08T19:41:44.417Z,0.50
2023-03-08T19:44:11.480Z,0.90
2023-03-08T19:46:39.658Z,0.90
2023-03-08T19:49:09.317Z,0.75
2023-03-08T19:51:36.502Z,1.50
2023-03-08T19:54:03.718Z,1.00
2023-03-08T19:56:30.871Z,1.05
2023-03-08T19:59:00.753Z,1.42
2023-03-08T20:01:28.238Z,1.30
2023-03-08T20:03:55.821Z,1.30
2023-03-08T20:06:29.006Z,1.55
2023-03-08T20:08:57.063Z,1.42
2023-03-08T20:11:24.477Z,1.63
2023-03-08T20:13:51.757Z,1.70
2023-03-08T20:16:20.509Z,2.05
2023-03-08T20:18:50.350Z,1.70
2023-03-08T20:21:19.473Z,1.08
2023-03-08T20:23:47.995Z,1.98
2023-03-08T20:26:15.238Z,1.65
2023-03-08T20:28:42.537Z,1.55
2023-03-08T20:31:12.030Z,2.03
2023-03-08T20:33:39.418Z,1.50
2023-03-08T20:36:07.388Z,1.55
2023-03-08T20:38:34.459Z,1.90
2023-03-08T20:41:09.972Z,1.67
2023-03-08T20:43:37.846Z,1.08
2023-03-08T20:46:06.619Z,0.93
2023-03-08T20:48:38.571Z,1.70
2023-03-08T20:51:08.267Z,2.03
2023-03-08T20:53:36.323Z,4.05
2023-03-08T20:56:08.652Z,2.17
2023-03-08T20:58:38.753Z,3.05
2023-03-08T21:01:29.530Z,2.83
2023-03-08T21:03:57.150Z,1.30
2023-03-08T21:06:27.049Z,1.92
2023-03-08T21:08:54.384Z,1.95
2023-03-08T21:11:22.326Z,1.67
2023-03-08T21:13:50.713Z,2.75
2023-03-08T21:16:20.194Z,2.08
2023-03-08T21:18:52.447Z,2.10
2023-03-08T21:21:27.288Z,2.85
2023-03-08T21:24:00.470Z,3.10
2023-03-08T21:26:29.055Z,2.95
2023-03-08T21:28:58.733Z,3.30
2023-03-08T21:31:25.963Z,2.25
2023-03-08T21:33:54.031Z,2.88
2023-03-08T21:36:21.164Z,2.38
2023-03-08T21:38:53.238Z,3.08
2023-03-08T21:41:26.987Z,2.67
2023-03-08T21:43:54.898Z,2.33
2023-03-08T21:46:22.269Z,2.45
2023-03-08T21:48:49.495Z,2.47
2023-03-08T21:51:17.164Z,2.25
2023-03-08T21:53:47.810Z,2.22
2023-03-08T21:56:17.118Z,2.28
2023-03-08T21:58:46.050Z,2.00
2023-03-08T22:01:21.242Z,2.95
2023-03-08T22:03:49.004Z,3.58
2023-03-08T22:06:17.739Z,2.40
2023-03-08T22:08:45.219Z,1.98
2023-03-08T22:11:12.960Z,2.70
2023-03-08T22:13:40.216Z,2.60
2023-03-08T22:16:08.370Z,2.67
2023-03-08T22:18:35.600Z,2.13
2023-03-08T22:21:02.817Z,2.72
2023-03-08T22:23:31.695Z,2.30
2023-03-08T22:25:58.719Z,2.35
2023-03-08T22:28:25.860Z,2.17
2023-03-08T22:30:56.210Z,2.72
2023-03-08T22:33:23.404Z,2.65
2023-03-08T22:35:50.791Z,3.00
2023-03-08T22:38:19.439Z,3.00
2023-03-08T22:40:46.500Z,1.75
2023-03-08T22:43:13.763Z,1.60
2023-03-08T22:45:41.035Z,2.88
2023-03-08T22:48:09.213Z,2.63
2023-03-08T22:50:36.753Z,2.60
2023-03-08T22:53:03.968Z,2.05
2023-03-08T22:55:37.012Z,2.63
2023-03-08T22:58:04.378Z,2.90
2023-03-08T23:00:31.434Z,1.92
2023-03-08T23:02:59.102Z,1.70
2023-03-08T23:05:28.773Z,3.13
2023-03-08T23:07:55.938Z,2.72
2023-03-08T23:10:23.079Z,1.60
2023-03-08T23:12:50.545Z,3.35
2023-03-08T23:15:18.054Z,1.75
2023-03-08T23:17:45.138Z,2.95
2023-03-08T23:20:12.825Z,1.90
2023-03-08T23:22:40.456Z,1.52
2023-03-08T23:25:08.195Z,1.80
2023-03-08T23:27:37.361Z,3.30
2023-03-08T23:30:05.932Z,1.73
2023-03-08T23:32:33.453Z,1.38
2023-03-08T23:35:00.736Z,2.20
2023-03-08T23:37:28.054Z,2.25
2023-03-08T23:39:57.417Z,1.77
2023-03-08T23:42:24.432Z,0.95
2023-03-08T23:44:51.774Z,0.75
2023-03-08T23:47:18.878Z,0.90
2023-03-08T23:49:48.795Z,1.88
2023-03-08T23:52:15.937Z,0.88
2023-03-08T23:54:43.007Z,2.35
2023-03-08T23:57:10.001Z,0.65
2023-03-08T23:59:37.155Z,1.95
